createdAt,value
2023-04-27T00:00:48.458Z,6.20
2023-04-27T00:03:15.904Z,6.22
2023-04-27T00:05:42.988Z,6.53
2023-04-27T00:08:09.633Z,6.30
2023-04-27T00:10:36.038Z,6.68
2023-04-27T00:13:02.444Z,6.57
2023-04-27T00:15:29.511Z,6.28
2023-04-27T00:17:57.358Z,6.75
2023-04-27T00:20:23.963Z,7.32
2023-04-27T00:22:50.609Z,7.20
2023-04-27T00:25:17.004Z,7.15
2023-04-27T00:27:43.416Z,6.95
2023-04-27T00:30:10.229Z,8.05
2023-04-27T00:32:36.671Z,7.00
2023-04-27T00:35:03.360Z,7.63
2023-04-27T00:37:29.793Z,7.60
2023-04-27T00:39:56.246Z,7.80
2023-04-27T00:42:22.969Z,7.15
2023-04-27T00:44:51.044Z,7.18
2023-04-27T00:47:17.909Z,6.95
2023-04-27T00:49:44.852Z,7.10
2023-04-27T00:52:11.658Z,7.18
2023-04-27T00:54:38.330Z,7.82
2023-04-27T00:57:05.134Z,7.38
2023-04-27T00:59:32.117Z,7.55
2023-04-27T01:01:59.392Z,7.25
2023-04-27T01:04:26.857Z,7.55
2023-04-27T01:06:54.706Z,7.45
2023-04-27T01:09:21.371Z,7.50
2023-04-27T01:11:49.720Z,7.50
2023-04-27T01:14:17.170Z,7.43
2023-04-27T01:16:44.330Z,7.97
2023-04-27T01:19:11.023Z,7.90
2023-04-27T01:21:37.963Z,8.15
2023-04-27T01:24:06.246Z,7.70
2023-04-27T01:26:33.581Z,8.05
2023-04-27T01:29:00.188Z,7.68
2023-04-27T01:31:27.225Z,7.75
2023-04-27T01:33:53.667Z,7.88
2023-04-27T01:36:20.100Z,7.22
2023-04-27T01:38:48.118Z,7.80
2023-04-27T01:41:14.773Z,7.78
2023-04-27T01:43:43.541Z,7.63
2023-04-27T01:46:13.079Z,7.45
2023-04-27T01:48:41.724Z,7.28
2023-04-27T01:51:08.179Z,8.25
2023-04-27T01:53:34.683Z,6.97
2023-04-27T01:56:01.422Z,8.38
2023-04-27T01:58:28.341Z,8.73
2023-04-27T02:00:54.986Z,8.23
2023-04-27T02:03:22.008Z,8.18
2023-04-27T02:05:50.352Z,8.15
2023-04-27T02:08:17.124Z,7.78
2023-04-27T02:10:44.641Z,8.23
2023-04-27T02:13:11.131Z,8.75
2023-04-27T02:15:37.679Z,8.07
2023-04-27T02:18:04.603Z,8.23
2023-04-27T02:20:32.035Z,7.97
2023-04-27T02:23:00.937Z,8.25
2023-04-27T02:25:27.538Z,8.20
2023-04-27T02:27:54.594Z,8.90
2023-04-27T02:30:21.666Z,8.13
2023-04-27T02:32:48.602Z,8.35
2023-04-27T02:35:16.006Z,8.38
2023-04-27T02:37:42.494Z,8.30
2023-04-27T02:40:09.764Z,8.23
2023-04-27T02:42:38.359Z,8.32
2023-04-27T02:45:07.123Z,8.63
2023-04-27T02:47:33.916Z,8.98
2023-04-27T02:50:01.141Z,8.68
2023-04-27T02:52:27.813Z,8.68
2023-04-27T02:54:54.357Z,8.23
2023-04-27T02:57:20.965Z,8.63
2023-04-27T02:59:47.931Z,8.50
2023-04-27T03:02:14.502Z,9.15
2023-04-27T03:04:40.973Z,9.07
2023-04-27T03:07:07.684Z,8.95
2023-04-27T03:09:34.474Z,8.88
2023-04-27T03:12:01.221Z,8.77
2023-04-27T03:14:27.647Z,8.48
2023-04-27T03:16:56.043Z,8.98
2023-04-27T03:19:22.618Z,8.75
2023-04-27T03:21:50.223Z,8.95
2023-04-27T03:24:17.151Z,8.90
2023-04-27T03:26:44.145Z,9.05
2023-04-27T03:29:10.612Z,8.70
2023-04-27T03:31:37.537Z,9.77
2023-04-27T03:34:04.060Z,9.32
2023-04-27T03:36:32.139Z,9.68
2023-04-27T03:38:58.636Z,9.02
2023-04-27T03:41:25.531Z,9.57
2023-04-27T03:43:53.316Z,10.73
2023-04-27T03:46:19.963Z,9.88
2023-04-27T03:48:47.270Z,9.43
2023-04-27T03:51:14.916Z,9.45
2023-04-27T03:53:43.230Z,9.75
2023-04-27T03:56:09.686Z,9.20
2023-04-27T03:58:36.956Z,9.07
2023-04-27T04:01:26.188Z,9.50
2023-04-27T04:03:53.604Z,10.23
2023-04-27T04:06:20.620Z,10.38
2023-04-27T04:08:47.715Z,9.95
2023-04-27T04:11:14.295Z,9.75
2023-04-27T04:13:42.050Z,9.88
2023-04-27T04:16:09.747Z,9.68
2023-04-27T04:18:37.161Z,9.50
2023-04-27T04:21:05.021Z,9.93
2023-04-27T04:23:32.780Z,9.85
2023-04-27T04:25:59.911Z,10.20
2023-04-27T04:28:30.890Z,9.90
2023-04-27T04:30:57.461Z,9.77
2023-04-27T04:33:24.274Z,10.00
2023-04-27T04:35:51.832Z,11.13
2023-04-27T04:38:18.665Z,10.73
2023-04-27T04:40:46.147Z,10.40
2023-04-27T04:43:13.197Z,10.35
2023-04-27T04:45:40.077Z,10.23
2023-04-27T04:48:06.590Z,10.38
2023-04-27T04:50:34.610Z,10.73
2023-04-27T04:53:01.438Z,10.93
2023-04-27T04:55:28.350Z,11.45
2023-04-27T04:57:54.935Z,11.65
2023-04-27T05:00:22.348Z,11.18
2023-04-27T05:02:48.884Z,10.57
2023-04-27T05:05:15.907Z,12.00
2023-04-27T05:07:42.965Z,12.25
2023-04-27T05:10:09.527Z,11.95
2023-04-27T05:12:35.954Z,11.70
2023-04-27T05:15:02.454Z,13.25
2023-04-27T05:17:28.926Z,11.57
2023-04-27T05:19:55.403Z,12.50
2023-04-27T05:22:22.363Z,12.80
2023-04-27T05:24:48.832Z,12.93
2023-04-27T05:27:15.243Z,13.23
2023-04-27T05:29:42.274Z,13.70
2023-04-27T05:32:09.435Z,13.80
2023-04-27T05:34:36.735Z,14.13
2023-04-27T05:37:03.403Z,14.68
2023-04-27T05:39:29.886Z,15.48
2023-04-27T05:41:57.342Z,14.07
2023-04-27T05:44:28.190Z,14.57
2023-04-27T05:46:56.247Z,13.07
2023-04-27T05:49:23.418Z,11.25
2023-04-27T05:51:50.054Z,11.05
2023-04-27T05:54:16.455Z,10.05
2023-04-27T05:56:42.914Z,9.10
2023-04-27T05:59:09.852Z,10.30
2023-04-27T06:01:36.760Z,9.07
2023-04-27T06:04:03.862Z,9.07
2023-04-27T06:06:35.251Z,8.73
2023-04-27T06:09:01.732Z,8.68
2023-04-27T06:11:28.513Z,8.20
2023-04-27T06:13:54.947Z,7.80
2023-04-27T06:16:21.536Z,7.97
2023-04-27T06:18:50.456Z,7.90
2023-04-27T06:21:17.294Z,7.55
2023-04-27T06:23:44.062Z,7.78
2023-04-27T06:26:10.484Z,7.43
2023-04-27T06:28:36.860Z,6.30
2023-04-27T06:31:03.484Z,5.70
2023-04-27T06:33:29.877Z,6.57
2023-04-27T06:35:56.258Z,5.68
2023-04-27T06:38:22.643Z,5.05
2023-04-27T06:40:53.151Z,5.45
2023-04-27T06:43:19.723Z,5.57
2023-04-27T06:45:46.387Z,5.50
2023-04-27T06:48:12.935Z,4.75
2023-04-27T06:50:39.679Z,4.93
2023-04-27T06:53:06.189Z,4.65
2023-04-27T06:55:32.791Z,5.30
2023-04-27T06:57:59.185Z,5.57
2023-04-27T07:00:27.200Z,5.32
2023-04-27T07:02:53.756Z,5.55
2023-04-27T07:05:20.417Z,5.20
2023-04-27T07:07:46.815Z,4.68
2023-04-27T07:10:13.212Z,5.75
2023-04-27T07:12:40.751Z,5.95
2023-04-27T07:15:07.921Z,5.60
2023-04-27T07:17:34.564Z,5.22
2023-04-27T07:20:01.892Z,5.30
2023-04-27T07:22:28.818Z,5.00
2023-04-27T07:24:55.260Z,5.18
2023-04-27T07:27:22.148Z,5.82
2023-04-27T07:29:48.553Z,4.93
2023-04-27T07:32:15.147Z,5.20
2023-04-27T07:34:52.505Z,5.30
2023-04-27T07:37:20.377Z,5.43
2023-04-27T07:39:47.266Z,5.63
2023-04-27T07:42:13.699Z,5.03
2023-04-27T07:44:40.761Z,6.53
2023-04-27T07:47:07.278Z,4.72
2023-04-27T07:49:34.976Z,5.47
2023-04-27T07:52:01.683Z,5.00
2023-04-27T07:54:28.094Z,5.75
2023-04-27T07:56:54.730Z,5.18
2023-04-27T07:59:21.410Z,5.60
2023-04-27T08:01:48.048Z,5.15
2023-04-27T08:04:16.008Z,5.25
2023-04-27T08:06:43.180Z,5.20
2023-04-27T08:09:09.932Z,4.90
2023-04-27T08:11:36.679Z,5.60
2023-04-27T08:14:03.191Z,5.03
2023-04-27T08:16:29.705Z,4.85
2023-04-27T08:18:57.556Z,5.10
2023-04-27T08:21:25.067Z,5.03
2023-04-27T08:23:51.599Z,6.05
2023-04-27T08:26:18.214Z,3.92
2023-04-27T08:28:44.575Z,3.35
2023-04-27T08:31:11.274Z,3.75
2023-04-27T08:33:38.040Z,4.35
2023-04-27T08:36:04.990Z,4.45
2023-04-27T08:38:33.385Z,3.40
2023-04-27T08:41:07.522Z,3.60
2023-04-27T08:43:44.950Z,3.30
2023-04-27T08:46:11.560Z,3.30
2023-04-27T08:48:37.936Z,3.88
2023-04-27T08:51:11.159Z,3.33
2023-04-27T08:53:37.521Z,3.13
2023-04-27T08:56:04.867Z,3.30
2023-04-27T08:58:39.188Z,2.80
2023-04-27T09:01:09.175Z,2.85
2023-04-27T09:03:37.059Z,3.00
2023-04-27T09:06:05.986Z,2.92
2023-04-27T09:08:47.131Z,2.33
2023-04-27T09:11:31.272Z,2.53
2023-04-27T09:13:59.635Z,2.00
2023-04-27T09:16:29.008Z,2.72
2023-04-27T09:18:57.341Z,3.25
2023-04-27T09:21:28.571Z,4.70
2023-04-27T09:23:56.369Z,3.03
2023-04-27T09:26:24.819Z,2.72
2023-04-27T09:28:54.453Z,2.35
2023-04-27T09:31:21.107Z,2.00
2023-04-27T09:33:55.819Z,2.63
2023-04-27T09:36:23.144Z,2.88
2023-04-27T09:38:51.631Z,2.92
2023-04-27T09:41:18.949Z,2.85
2023-04-27T09:43:47.153Z,2.60
2023-04-27T09:46:14.829Z,2.33
2023-04-27T09:48:41.862Z,2.40
2023-04-27T09:51:08.931Z,2.08
2023-04-27T09:53:52.781Z,2.47
2023-04-27T09:56:46.382Z,2.63
2023-04-27T09:59:28.055Z,2.55
2023-04-27T10:01:56.802Z,2.50
2023-04-27T10:04:29.273Z,2.25
2023-04-27T10:07:01.128Z,2.73
2023-04-27T10:09:49.308Z,2.90
2023-04-27T10:12:23.509Z,3.08
2023-04-27T10:14:57.289Z,2.38
2023-04-27T10:17:26.764Z,2.90
2023-04-27T10:20:02.066Z,2.70
2023-04-27T10:22:58.182Z,2.58
2023-04-27T10:25:40.048Z,2.70
2023-04-27T10:28:08.092Z,2.55
2023-04-27T10:30:36.814Z,2.80
2023-04-27T10:33:10.904Z,3.17
2023-04-27T10:35:38.482Z,2.72
2023-04-27T10:38:21.779Z,2.90
2023-04-27T10:41:01.870Z,2.88
2023-04-27T10:43:30.606Z,2.50
2023-04-27T10:46:13.968Z,3.25
2023-04-27T10:48:42.263Z,2.60
2023-04-27T10:51:09.268Z,2.65
2023-04-27T10:53:37.283Z,2.72
2023-04-27T10:56:06.776Z,2.95
2023-04-27T10:58:45.245Z,2.90
2023-04-27T11:01:23.992Z,3.15
2023-04-27T11:03:55.700Z,1.63
2023-04-27T11:06:22.122Z,2.17
2023-04-27T11:08:49.110Z,3.22
2023-04-27T11:11:17.229Z,2.70
2023-04-27T11:13:44.727Z,2.80
2023-04-27T11:16:11.233Z,3.15
2023-04-27T11:18:38.162Z,2.30
2023-04-27T11:21:07.668Z,3.10
2023-04-27T11:23:39.095Z,3.13
2023-04-27T11:26:11.398Z,2.90
2023-04-27T11:28:38.378Z,3.15
2023-04-27T11:31:05.168Z,2.40
2023-04-27T11:33:31.779Z,2.65
2023-04-27T11:35:58.871Z,2.97
2023-04-27T11:38:26.414Z,3.30
2023-04-27T11:41:07.338Z,2.90
2023-04-27T11:43:34.540Z,2.70
2023-04-27T11:46:05.811Z,2.15
2023-04-27T11:48:32.261Z,2.83
2023-04-27T11:51:01.931Z,2.67
2023-04-27T11:53:39.568Z,2.83
2023-04-27T11:56:10.857Z,3.17
2023-04-27T11:58:39.023Z,2.70
2023-04-27T12:01:07.771Z,2.75
2023-04-27T12:03:34.979Z,2.85
2023-04-27T12:08:31.311Z,2.88
2023-04-27T12:10:57.722Z,2.80
2023-04-27T12:13:24.155Z,2.45
2023-04-27T12:15:50.557Z,2.40
2023-04-27T12:18:16.915Z,2.92
2023-04-27T12:20:43.575Z,2.40
2023-04-27T12:23:10.278Z,2.78
2023-04-27T12:25:37.520Z,2.50
2023-04-27T12:28:04.202Z,2.58
2023-04-27T12:30:31.749Z,2.50
2023-04-27T12:33:00.218Z,2.53
2023-04-27T12:35:26.769Z,2.83
2023-04-27T12:37:53.229Z,2.80
2023-04-27T12:40:19.680Z,2.95
2023-04-27T12:42:46.131Z,2.95
2023-04-27T12:45:12.661Z,2.78
2023-04-27T12:47:58.093Z,2.70
2023-04-27T12:50:26.836Z,2.45
2023-04-27T12:52:53.457Z,3.00
2023-04-27T12:55:32.139Z,2.90
2023-04-27T12:58:00.929Z,2.35
2023-04-27T13:00:27.725Z,2.58
2023-04-27T13:02:54.315Z,2.83
2023-04-27T13:05:21.958Z,3.10
2023-04-27T13:07:48.487Z,2.80
2023-04-27T13:10:15.202Z,2.75
2023-04-27T13:12:41.688Z,3.05
2023-04-27T13:15:09.058Z,2.85
2023-04-27T13:17:35.486Z,2.78
2023-04-27T13:20:01.992Z,2.75
2023-04-27T13:22:28.792Z,3.10
2023-04-27T13:24:55.462Z,2.58
2023-04-27T13:27:24.981Z,2.92
2023-04-27T13:29:51.383Z,3.15
2023-04-27T13:32:18.517Z,3.10
2023-04-27T13:34:45.013Z,3.13
2023-04-27T13:37:11.403Z,2.50
2023-04-27T13:39:37.957Z,2.53
2023-04-27T13:42:04.622Z,2.72
2023-04-27T13:44:31.681Z,3.00
2023-04-27T13:46:58.409Z,2.80
2023-04-27T13:49:25.762Z,2.83
2023-04-27T13:51:52.171Z,2.60
2023-04-27T13:54:18.564Z,2.95
2023-04-27T13:56:44.942Z,2.92
2023-04-27T13:59:11.674Z,2.63
2023-04-27T14:01:39.847Z,2.50
2023-04-27T14:04:07.335Z,2.70
2023-04-27T14:06:33.982Z,2.42
2023-04-27T14:09:00.367Z,3.10
2023-04-27T14:11:26.957Z,2.70
2023-04-27T14:13:53.800Z,3.15
2023-04-27T14:16:20.833Z,2.50
2023-04-27T14:18:47.646Z,2.90
2023-04-27T14:21:14.073Z,3.13
2023-04-27T14:23:40.864Z,3.15
2023-04-27T14:26:07.527Z,3.28
2023-04-27T14:28:34.523Z,3.42
2023-04-27T14:31:00.895Z,3.00
2023-04-27T14:33:27.352Z,3.55
2023-04-27T14:35:54.101Z,3.13
2023-04-27T14:38:20.664Z,3.20
2023-04-27T14:40:47.421Z,3.30
2023-04-27T14:43:14.071Z,3.20
2023-04-27T14:45:50.824Z,3.05
2023-04-27T14:48:20.915Z,3.17
2023-04-27T14:50:47.937Z,3.63
2023-04-27T14:53:14.322Z,3.70
2023-04-27T14:55:41.580Z,3.35
2023-04-27T14:58:08.018Z,3.00
2023-04-27T15:00:56.429Z,3.70
2023-04-27T15:03:23.403Z,3.05
2023-04-27T15:05:49.980Z,3.10
2023-04-27T15:08:16.425Z,4.15
2023-04-27T15:10:43.022Z,3.55
2023-04-27T15:13:09.501Z,3.40
2023-04-27T15:15:36.029Z,3.47
2023-04-27T15:18:02.989Z,3.33
2023-04-27T15:20:29.806Z,4.70
2023-04-27T15:22:56.230Z,4.20
2023-04-27T15:25:22.761Z,3.88
2023-04-27T15:27:49.608Z,3.17
2023-04-27T15:30:16.264Z,3.10
2023-04-27T15:32:42.702Z,3.40
2023-04-27T15:35:09.571Z,3.50
2023-04-27T15:37:36.628Z,4.00
2023-04-27T15:40:04.116Z,2.88
2023-04-27T15:42:30.621Z,3.20
2023-04-27T15:44:57.862Z,3.25
2023-04-27T15:47:24.257Z,3.65
2023-04-27T15:49:57.400Z,3.58
2023-04-27T15:52:26.299Z,3.25
2023-04-27T15:54:52.818Z,3.15
2023-04-27T15:57:19.320Z,3.55
2023-04-27T15:59:45.876Z,3.22
2023-04-27T16:02:13.321Z,3.50
2023-04-27T16:04:39.847Z,3.10
2023-04-27T16:07:07.242Z,3.08
2023-04-27T16:09:33.911Z,3.80
2023-04-27T16:12:01.393Z,3.47
2023-04-27T16:14:27.820Z,3.38
2023-04-27T16:16:56.019Z,4.03
2023-04-27T16:19:23.477Z,3.85
2023-04-27T16:21:49.848Z,3.80
2023-04-27T16:24:16.287Z,4.13
2023-04-27T16:26:42.715Z,4.22
2023-04-27T16:29:09.128Z,4.25
2023-04-27T16:31:35.647Z,3.53
2023-04-27T16:34:03.034Z,4.18
2023-04-27T16:36:30.284Z,3.78
2023-04-27T16:38:57.131Z,3.85
2023-04-27T16:41:24.295Z,4.00
2023-04-27T16:43:51.178Z,4.07
2023-04-27T16:46:17.607Z,4.20
2023-04-27T16:48:44.422Z,4.07
2023-04-27T16:51:10.819Z,4.60
2023-04-27T16:53:37.314Z,4.15
2023-04-27T16:56:04.003Z,4.32
2023-04-27T16:58:30.784Z,4.75
2023-04-27T17:00:57.928Z,4.60
2023-04-27T17:03:25.051Z,4.22
2023-04-27T17:05:52.238Z,4.78
2023-04-27T17:08:18.624Z,4.72
2023-04-27T17:10:45.344Z,3.92
2023-04-27T17:13:14.561Z,4.50
2023-04-27T17:15:41.379Z,4.60
2023-04-27T17:18:09.649Z,3.97
2023-04-27T17:20:36.617Z,4.70
2023-04-27T17:23:03.061Z,4.68
2023-04-27T17:25:29.455Z,4.40
2023-04-27T17:27:55.822Z,4.63
2023-04-27T17:30:22.313Z,4.50
2023-04-27T17:32:48.758Z,5.05
2023-04-27T17:35:15.839Z,4.20
2023-04-27T17:37:42.277Z,5.00
2023-04-27T17:40:09.243Z,4.75
2023-04-27T17:42:35.965Z,4.53
2023-04-27T17:45:03.139Z,4.82
2023-04-27T17:47:29.611Z,4.60
2023-04-27T17:49:56.121Z,4.90
2023-04-27T17:52:22.489Z,4.90
2023-04-27T17:54:48.943Z,4.57
2023-04-27T17:57:15.298Z,4.70
2023-04-27T17:59:42.401Z,4.90
2023-04-27T18:02:08.919Z,4.80
2023-04-27T18:04:35.533Z,4.90
2023-04-27T18:07:02.087Z,4.80
2023-04-27T18:09:30.663Z,4.43
2023-04-27T18:11:59.024Z,4.72
2023-04-27T18:14:26.124Z,4.72
2023-04-27T18:16:52.614Z,4.82
2023-04-27T18:19:19.284Z,4.43
2023-04-27T18:21:46.166Z,4.45
2023-04-27T18:24:12.647Z,4.30
2023-04-27T18:26:39.045Z,4.93
2023-04-27T18:29:05.408Z,5.07
2023-04-27T18:31:31.967Z,5.15
2023-04-27T18:33:59.225Z,4.90
2023-04-27T18:36:27.429Z,4.75
2023-04-27T18:38:55.031Z,4.70
2023-04-27T18:41:21.482Z,5.22
2023-04-27T18:43:47.928Z,5.03
2023-04-27T18:46:14.451Z,4.53
2023-04-27T18:48:41.173Z,5.25
2023-04-27T18:51:07.564Z,4.80
2023-04-27T18:53:34.408Z,4.85
2023-04-27T18:56:02.041Z,5.03
2023-04-27T18:58:28.848Z,5.20
2023-04-27T19:00:55.332Z,5.65
2023-04-27T19:03:21.852Z,5.13
2023-04-27T19:05:48.632Z,5.07
2023-04-27T19:08:15.018Z,5.40
2023-04-27T19:10:41.624Z,4.93
2023-04-27T19:13:08.091Z,5.70
2023-04-27T19:15:34.618Z,5.00
2023-04-27T19:18:09.932Z,5.65
2023-04-27T19:20:38.381Z,5.55
2023-04-27T19:23:05.185Z,5.75
2023-04-27T19:25:31.656Z,5.43
2023-04-27T19:27:58.554Z,5.68
2023-04-27T19:30:25.204Z,5.95
2023-04-27T19:32:52.139Z,5.85
2023-04-27T19:35:20.130Z,6.05
2023-04-27T19:37:46.593Z,5.40
2023-04-27T19:40:13.099Z,5.22
2023-04-27T19:42:39.506Z,5.40
2023-04-27T19:45:06.835Z,5.47
2023-04-27T19:47:33.288Z,6.15
2023-04-27T19:49:59.728Z,5.57
2023-04-27T19:52:26.399Z,5.15
2023-04-27T19:54:53.881Z,5.40
2023-04-27T19:57:21.622Z,5.75
2023-04-27T19:59:48.087Z,5.55
2023-04-27T20:02:15.430Z,6.05
2023-04-27T20:04:42.123Z,5.60
2023-04-27T20:07:08.807Z,5.80
2023-04-27T20:09:35.525Z,5.97
2023-04-27T20:12:02.032Z,6.05
2023-04-27T20:14:29.933Z,5.50
2023-04-27T20:16:56.435Z,6.07
2023-04-27T20:19:25.002Z,6.20
2023-04-27T20:21:51.458Z,5.63
2023-04-27T20:24:17.977Z,5.78
2023-04-27T20:26:44.552Z,5.40
2023-04-27T20:29:11.166Z,5.30
2023-04-27T20:31:37.602Z,5.70
2023-04-27T20:34:04.389Z,5.63
2023-04-27T20:36:32.192Z,5.43
2023-04-27T20:39:00.906Z,5.82
2023-04-27T20:41:28.090Z,6.03
2023-04-27T20:43:55.248Z,5.30
2023-04-27T20:46:21.743Z,5.40
2023-04-27T20:48:48.385Z,5.00
2023-04-27T20:51:14.760Z,4.88
2023-04-27T20:53:41.248Z,5.38
2023-04-27T20:56:07.727Z,5.28
2023-04-27T20:58:34.649Z,5.03
2023-04-27T21:01:01.078Z,5.35
2023-04-27T21:03:27.667Z,5.38
2023-04-27T21:05:54.422Z,5.50
2023-04-27T21:08:20.992Z,4.72
2023-04-27T21:10:47.407Z,4.88
2023-04-27T21:13:13.932Z,5.45
2023-04-27T21:15:40.367Z,5.05
2023-04-27T21:18:13.498Z,5.20
2023-04-27T21:20:45.537Z,4.60
2023-04-27T21:23:14.511Z,5.00
2023-04-27T21:25:44.861Z,4.97
2023-04-27T21:28:12.125Z,5.03
2023-04-27T21:30:38.935Z,5.18
2023-04-27T21:33:06.006Z,4.80
2023-04-27T21:35:32.510Z,4.57
2023-04-27T21:37:59.393Z,5.30
2023-04-27T21:40:26.070Z,5.32
2023-04-27T21:42:53.730Z,4.50
2023-04-27T21:45:20.910Z,4.50
2023-04-27T21:47:47.644Z,4.97
2023-04-27T21:50:14.254Z,4.80
2023-04-27T21:52:40.860Z,4.85
2023-04-27T21:55:07.931Z,4.72
2023-04-27T21:57:34.448Z,5.38
2023-04-27T22:00:01.005Z,5.20
2023-04-27T22:02:29.413Z,4.78
2023-04-27T22:04:56.479Z,4.75
2023-04-27T22:07:24.517Z,4.50
2023-04-27T22:09:50.945Z,4.80
2023-04-27T22:12:17.351Z,4.80
2023-04-27T22:14:44.006Z,5.35
2023-04-27T22:17:12.431Z,4.68
2023-04-27T22:19:38.826Z,4.38
2023-04-27T22:22:05.343Z,4.60
2023-04-27T22:24:31.720Z,5.15
2023-04-27T22:26:58.190Z,4.53
2023-04-27T22:29:24.620Z,5.18
2023-04-27T22:31:52.303Z,5.50
2023-04-27T22:34:18.802Z,5.13
2023-04-27T22:36:45.373Z,5.65
2023-04-27T22:39:12.220Z,5.10
2023-04-27T22:41:38.608Z,5.70
2023-04-27T22:44:05.741Z,5.60
2023-04-27T22:46:32.636Z,5.82
2023-04-27T22:49:01.318Z,6.03
2023-04-27T22:51:27.885Z,5.95
2023-04-27T22:53:54.587Z,6.07
2023-04-27T22:56:21.090Z,5.55
2023-04-27T22:58:47.536Z,5.75
2023-04-27T23:01:14.005Z,6.10
2023-04-27T23:03:40.569Z,6.10
2023-04-27T23:06:12.100Z,6.03
2023-04-27T23:08:41.782Z,6.55
2023-04-27T23:11:09.072Z,6.35
2023-04-27T23:13:35.471Z,6.00
2023-04-27T23:16:01.855Z,6.30
2023-04-27T23:18:28.798Z,6.43
2023-04-27T23:20:55.204Z,5.82
2023-04-27T23:23:21.773Z,6.40
2023-04-27T23:25:48.187Z,6.70
2023-04-27T23:28:14.700Z,6.88
2023-04-27T23:30:41.117Z,7.28
2023-04-27T23:33:07.591Z,7.00
2023-04-27T23:35:34.044Z,7.50
2023-04-27T23:38:00.515Z,7.80
2023-04-27T23:40:26.877Z,8.00
2023-04-27T23:42:53.307Z,7.18
2023-04-27T23:45:20.402Z,8.50
2023-04-27T23:47:46.939Z,8.15
2023-04-27T23:50:13.525Z,9.05
2023-04-27T23:52:39.969Z,8.77
2023-04-27T23:55:07.174Z,9.48
2023-04-27T23:57:33.612Z,10.65
